Flight Track Log - Related Links

Times and Time Zones

All times are in EDT time to prevent confusion due to time zone crossing. See the SAS2813 flight status page for this flight to view local times or setup timezone preferences in your user account.

Time Position Orientation Groundspeed Altitude Reporting Facility
EDT Latitude Longitude Course Direction KTS MPH feet Rate Location/Type
Sat 10:18:56 AM 55.6120 12.6350 180° South 94 108  Level FlightAware ADS-B
Sat 10:19:38 AM 55.5930 12.6050 222° Southwest 140 161 1,400 1,500 Climbing FlightAware ADS-B
Sat 10:20:16 AM 55.5730 12.5710 224° Southwest 195 224 2,000 1,784 Climbing FlightAware ADS-B
Sat 10:20:52 AM 55.5480 12.5180 230° Southwest 230 265 3,600 3,391 Climbing FlightAware ADS-B
Sat 10:21:25 AM 55.5290 12.4660 237° Southwest 225 259 5,900 3,441 Climbing FlightAware ADS-B
Sat 10:22:00 AM 55.5090 12.4100 238° Southwest 246 283 7,500 1,875 Climbing FlightAware ADS-B
Sat 10:22:45 AM 55.4790 12.3260 238° Southwest 309 356 8,400 1,976 Climbing FlightAware ADS-B
Sat 10:23:25 AM 55.4460 12.2370 237° Southwest 320 368 10,300 2,800 Climbing FlightAware ADS-B
Sat 10:24:00 AM 55.4180 12.1620 237° Southwest 325 374 11,900 2,500 Climbing FlightAware ADS-B
Sat 10:24:37 AM 55.3870 12.0770 237° Southwest 340 391 13,300 2,318 Climbing FlightAware ADS-B
Sat 10:25:28 AM 55.3420 11.9560 237° Southwest 351 404 15,300 2,455 Climbing FlightAware ADS-B
Sat 10:26:05 AM 55.3090 11.8680 237° Southwest 351 404 16,900 2,229 Climbing FlightAware ADS-B
Sat 10:26:38 AM 55.2800 11.7880 238° Southwest 360 414 17,900 1,726 Climbing FlightAware ADS-B
Sat 10:27:18 AM 55.2450 11.6930 237° Southwest 371 427 19,000 1,808 Climbing FlightAware ADS-B
Sat 10:27:51 AM 55.2120 11.6060 236° Southwest 377 434 20,100 1,971 Climbing FlightAware ADS-B
Sat 10:28:28 AM 55.1760 11.5100 237° Southwest 381 438 21,300 1,833 Climbing FlightAware ADS-B
Sat 10:29:03 AM 55.1420 11.4190 237° Southwest 385 443 22,300 1,519 Climbing FlightAware ADS-B
Sat 10:29:47 AM 55.1000 11.3090 236° Southwest 393 452 23,300 1,500 Climbing FlightAware ADS-B
Sat 10:30:27 AM 55.0590 11.1990 237° Southwest 399 459 24,400 1,519 Climbing FlightAware ADS-B
Sat 10:31:06 AM 55.0190 11.0950 236° Southwest 405 466 25,300 1,310 Climbing FlightAware ADS-B
Sat 10:31:54 AM 54.9690 10.9660 236° Southwest 411 473 26,300 1,310 Climbing FlightAware ADS-B
Sat 10:32:33 AM 54.9260 10.8550 236° Southwest 415 478 27,200 1,437 Climbing FlightAware ADS-B
Sat 10:33:05 AM 54.8920 10.7660 236° Southwest 414 476 28,000 1,292 Climbing FlightAware ADS-B
Sat 10:33:38 AM 54.8560 10.6740 236° Southwest 418 481 28,600 1,792 Climbing FlightAware ADS-B
Sat 10:34:22 AM 54.8120 10.5600 236° Southwest 399 459 30,300 1,955 Climbing FlightAware ADS-B
Sat 10:35:07 AM 54.7650 10.4420 235° Southwest 393 452 31,500 1,263 Climbing FlightAware ADS-B
Sat 10:35:38 AM 54.7330 10.3600 236° Southwest 401 461 31,900 973 Climbing FlightAware ADS-B
Sat 10:36:21 AM 54.6890 10.2470 236° Southwest 402 463 32,700 929 Climbing FlightAware ADS-B
Sat 10:37:02 AM 54.6460 10.1400 235° Southwest 409 471 33,200 975 Climbing FlightAware ADS-B
Sat 10:37:41 AM 54.6040 10.0340 236° Southwest 409 471 34,000 988 Climbing FlightAware ADS-B
Sat 10:38:27 AM 54.5560 9.9150 235° Southwest 411 473 34,600 776 Climbing FlightAware ADS-B
Sat 10:39:06 AM 54.5140 9.8100 235° Southwest 414 476 35,100 643 Climbing FlightAware ADS-B
Sat 10:39:51 AM 54.4620 9.6830 235° Southwest 423 487 35,500 786 Climbing FlightAware ADS-B
Sat 10:40:30 AM 54.4190 9.5750 236° Southwest 421 484 36,200 900 Climbing FlightAware ADS-B
Sat 10:41:11 AM 54.3720 9.4600 235° Southwest 421 484 36,700 556 Climbing FlightAware ADS-B
Sat 10:42:18 AM 54.3010 9.2870 235° Southwest 428 493 37,200 635 Climbing FlightAware ADS-B
Sat 10:42:55 AM 54.2560 9.1780 235° Southwest 424 488 37,800 649 Climbing FlightAware ADS-B
Sat 10:43:32 AM 54.2130 9.0770 234° Southwest 422 486 38,000 154 Climbing FlightAware ADS-B
Sat 10:44:13 AM 54.1530 8.9890 221° Southwest 425 489 38,000  Level FlightAware ADS-B
Sat 10:44:54 AM 54.0910 8.9000 220° Southwest 425 489 38,000  Level FlightAware ADS-B
Sat 10:45:29 AM 54.0360 8.8200 221° Southwest 427 491 38,000  Level FlightAware ADS-B
Sat 10:46:33 AM 53.9410 8.6830 220° Southwest 427 491 38,000  Level FlightAware ADS-B
Sat 10:47:36 AM 53.8460 8.5480 220° Southwest 425 489 38,000  Level FlightAware ADS-B
Sat 10:48:24 AM 53.7740 8.4470 220° Southwest 427 491 38,000  Level FlightAware ADS-B
Sat 10:48:59 AM 53.7210 8.3720 220° Southwest 427 491 38,000  Level FlightAware ADS-B
Sat 10:49:39 AM 53.6590 8.2850 220° Southwest 428 493 38,000  Level FlightAware ADS-B
Sat 10:50:24 AM 53.5920 8.1910 220° Southwest 430 495 38,000  Level FlightAware ADS-B
Sat 10:50:58 AM 53.5380 8.1160 220° Southwest 429 494 38,000  Level FlightAware ADS-B
Sat 10:51:29 AM 53.4910 8.0520 219° Southwest 431 496 38,000  Level FlightAware ADS-B
Sat 10:52:10 AM 53.4290 7.9660 220° Southwest 431 496 38,000  Level FlightAware ADS-B
Sat 10:52:59 AM 53.3540 7.8620 220° Southwest 432 497 38,000  Level FlightAware ADS-B
Sat 10:53:48 AM 53.2820 7.7630 219° Southwest 432 497 38,000  Level FlightAware ADS-B
Sat 10:54:25 AM 53.2220 7.6820 219° Southwest 432 497 38,000  Level FlightAware ADS-B
Sat 10:55:09 AM 53.1530 7.5880 219° Southwest 432 497 38,000  Level FlightAware ADS-B
Sat 10:55:54 AM 53.0840 7.4950 219° Southwest 430 495 38,000  Level FlightAware ADS-B
Sat 10:56:38 AM 53.0160 7.4030 219° Southwest 428 493 38,000  Level FlightAware ADS-B
Sat 10:57:10 AM 52.9670 7.3370 219° Southwest 428 493 38,000  Level FlightAware ADS-B
Sat 10:57:50 AM 52.9090 7.2590 219° Southwest 428 493 38,000  Level FlightAware ADS-B
Sat 10:58:28 AM 52.8460 7.1760 219° Southwest 428 493 38,000  Level FlightAware ADS-B
Sat 10:58:59 AM 52.8020 7.1170 219° Southwest 427 491 38,000  Level FlightAware ADS-B
Sat 10:59:37 AM 52.7420 7.0370 219° Southwest 426 490 38,000  Level FlightAware ADS-B
Sat 11:00:19 AM 52.6770 6.9520 218° Southwest 425 489 38,000  Level FlightAware ADS-B
Sat 11:01:05 AM 52.6080 6.8610 219° Southwest 424 488 38,000  Level FlightAware ADS-B
Sat 11:01:42 AM 52.5500 6.7850 219° Southwest 424 488 38,000  Level FlightAware ADS-B
Sat 11:02:32 AM 52.4750 6.6860 219° Southwest 425 489 38,000  Level FlightAware ADS-B
Sat 11:03:09 AM 52.4170 6.6110 218° Southwest 425 489 38,000  Level FlightAware ADS-B
Sat 11:03:48 AM 52.3580 6.5350 218° Southwest 425 489 38,000  Level FlightAware ADS-B
Sat 11:04:35 AM 52.2840 6.4390 218° Southwest 425 489 38,000  Level FlightAware ADS-B
Sat 11:04:59 AM 52.2456 6.3897 218° Southwest 425 489 38,000  Level FlightAware ADS-B
Sat 11:05:33 AM 52.1971 6.3274 218° Southwest 425 489 38,000  Level FlightAware ADS-B
Sat 11:06:15 AM 52.1352 6.2482 218° Southwest 425 489 38,000  Level FlightAware ADS-B
Sat 11:06:45 AM 52.0853 6.1847 218° Southwest 426 490 38,000  Level FlightAware ADS-B
Sat 11:07:38 AM 52.0029 6.0799 218° Southwest 426 490 38,000  Level FlightAware ADS-B
Sat 11:08:11 AM 51.9489 6.0118 218° Southwest 427 491 38,000  Level FlightAware ADS-B
Sat 11:09:10 AM 51.8630 5.9040 218° Southwest 426 490 38,000  Level FlightAware ADS-B
Sat 11:09:52 AM 51.7924 5.8150 218° Southwest 428 493 38,000  Level FlightAware ADS-B
Sat 11:10:25 AM 51.7411 5.7508 218° Southwest 428 493 38,000  Level FlightAware ADS-B
Sat 11:11:01 AM 51.6870 5.6840 218° Southwest 428 493 38,000  Level FlightAware ADS-B
Sat 11:11:02 AM 51.6806 5.6765 218° Southwest 456 525 38,000  Level FlightAware UK
Sat 11:11:22 AM 51.6526 5.6410 218° Southwest 428 493 38,000  Level FlightAware ADS-B
Sat 11:12:18 AM 51.5690 5.5370 218° Southwest 426 490 38,000  Level FlightAware ADS-B
Sat 11:13:00 AM 51.5030 5.4560 218° Southwest 426 490 38,000  Level FlightAware ADS-B
Sat 11:13:08 AM 51.4850 5.4342 218° Southwest 456 525 38,000  Level FlightAware UK
Sat 11:14:08 AM 51.3913 5.3198 218° Southwest 456 525 38,000  Level FlightAware UK
Sat 11:14:13 AM 51.3860 5.3130 218° Southwest 425 489 38,000  Level FlightAware ADS-B
Sat 11:15:01 AM 51.3130 5.2220 218° Southwest 427 491 38,000  Level FlightAware ADS-B
Sat 11:15:42 AM 51.2490 5.1450 218° Southwest 426 490 38,000  Level FlightAware ADS-B
Sat 11:15:44 AM 51.2427 5.1378 218° Southwest 458 527 38,000  Level FlightAware UK
Sat 11:16:30 AM 51.1720 5.0520 217° Southwest 424 488 38,000  Level FlightAware ADS-B
Sat 11:17:19 AM 51.0970 4.9610 217° Southwest 422 486 38,000  Level FlightAware ADS-B
Sat 11:18:03 AM 51.0280 4.8790 217° Southwest 421 484 38,000 -109 Level FlightAware ADS-B
Sat 11:18:14 AM 51.0068 4.8542 217° Southwest 454 522 37,900 -128 Descending FlightAware UK
Sat 11:18:50 AM 50.9509 4.7871 217° Southwest 452 520 37,900 167 Level FlightAware UK
Sat 11:18:50 AM 50.9560 4.7920 217° Southwest 420 483 38,000 150 Climbing FlightAware ADS-B
Sat 11:19:30 AM 50.8930 4.7180 217° Southwest 420 483 38,000 -125 Level FlightAware ADS-B
Sat 11:19:38 AM 50.8765 4.6984 217° Southwest 454 522 37,900  Descending FlightAware UK
Sat 11:19:57 AM 50.9655 4.8039 37° Northeast 421 484 38,000  Climbing FlightAware ADS-B
Sat 11:20:38 AM 50.7835 4.5884 37° Northeast 454 522 37,900  Descending FlightAware UK
Sat 11:20:52 AM 50.7660 4.5680 37° Northeast 419 482 38,000 118 Climbing FlightAware ADS-B
Sat 11:21:29 AM 50.7090 4.5000 37° Northeast 417 480 38,000  Level FlightAware ADS-B
Sat 11:21:44 AM 50.6809 4.4670 37° Northeast 456 525 38,000  Level FlightAware UK
Sat 11:21:57 AM 50.6660 4.4500 37° Northeast 415 478 38,000  Level FlightAware ADS-B
Sat 11:22:14 AM 50.6347 4.4126 37° Northeast 454 522 38,000  Level FlightAware UK
Sat 11:22:44 AM 50.5885 4.3583 37° Northeast 452 520 38,000  Level FlightAware UK
Sat 11:22:47 AM 50.5890 4.3600 37° Northeast 411 473 38,000  Level FlightAware ADS-B
Sat 11:23:31 AM 50.5230 4.2830 37° Northeast 409 471 38,000 -105 Level FlightAware ADS-B
Sat 11:23:44 AM 50.4989 4.2546 37° Northeast 452 520 37,900  Descending FlightAware UK
Sat 11:23:56 AM 50.4834 4.2362 217° Southwest 409 471 38,000 118 Climbing FlightAware ADS-B
Sat 11:24:35 AM 50.4240 4.1680 217° Southwest 409 471 38,000 -128 Level FlightAware ADS-B
Sat 11:24:43 AM 50.4089 4.1504 217° Southwest 456 525 37,900  Descending FlightAware UK
Sat 11:25:16 AM 50.3640 4.0980 217° Southwest 409 471 38,000 -286 Climbing FlightAware ADS-B
Sat 11:25:25 AM 50.3445 4.0749 217° Southwest 452 520 37,700 -941 Descending FlightAware UK
Sat 11:26:07 AM 50.2850 4.0070 217° Southwest 405 466 37,200 -778 Descending FlightAware ADS-B
Sat 11:26:19 AM 50.2624 3.9801 217° Southwest 452 520 37,000 1,920 Descending FlightAware UK
Sat 11:26:32 AM 51.4400 5.3790 36° Northeast 427 491 38,000 -125 Climbing FlightAware ADS-B
Sat 11:27:07 AM 50.1886 3.8989 36° Northeast 1 1 36,900 -1,364 Descending FlightAware UK
Sat 11:27:16 AM 50.1780 3.8890 36° Northeast 409 471 37,000 240 Climbing FlightAware ADS-B
Sat 11:27:32 AM 50.1520 3.8610 215° Southwest 408 470 37,000  Level FlightAware ADS-B
Sat 11:28:03 AM 50.1193 3.8251 215° Southwest 406 467 37,000  Level FlightAware ADS-B
Sat 11:28:35 AM 50.0650 3.7653 215° Southwest 405 466 37,000  Level FlightAware ADS-B
Sat 11:29:06 AM 50.0089 3.7042 215° Southwest 405 466 37,000  Level FlightAware ADS-B
Sat 11:29:10 AM 50.0029 3.6976 215° Southwest 405 466 37,000  Level FlightAware ADS-B
Sat 11:29:45 AM 49.9781 3.6708 215° Southwest 405 466 37,000  Level FlightAware ADS-B
Sat 11:30:02 AM 49.9267 3.6151 215° Southwest 406 467 37,000  Level FlightAware ADS-B
Sat 11:30:35 AM 49.8732 3.5571 215° Southwest 400 460 37,000  Level FlightAware ADS-B
Sat 11:31:05 AM 49.8264 3.5064 215° Southwest 409 471 37,000  Level FlightAware ADS-B
Sat 11:32:01 AM 49.7395 3.4134 215° Southwest 412 474 37,000  Level FlightAware ADS-B
Sat 11:32:37 AM 49.6803 3.3498 215° Southwest 1 1 37,000  Level FlightAware UK
Sat 11:32:39 AM 49.6810 3.3510 215° Southwest 410 472 37,000 115 Level FlightAware ADS-B
Sat 11:33:29 AM 49.6030 3.2670 215° Southwest 407 468 37,100  Climbing FlightAware ADS-B
Sat 11:34:01 AM 49.5500 3.2102 215° Southwest 1 1 37,000 -167 Descending FlightAware UK
Sat 11:34:05 AM 49.5470 3.2070 215° Southwest 403 464 37,000  Level FlightAware ADS-B
Sat 11:34:42 AM 49.4970 3.1540 215° Southwest 400 460 37,000  Level FlightAware ADS-B
Sat 11:35:28 AM 49.4200 3.0730 215° Southwest 397 457 37,000 -109 Level FlightAware ADS-B
Sat 11:35:37 AM 49.4032 3.0532 215° Southwest 1 1 36,900  Descending FlightAware UK
Sat 11:36:05 AM 49.3680 3.0180 215° Southwest 395 455 37,000  Climbing FlightAware ADS-B
Sat 11:36:13 AM 49.3490 2.9952 215° Southwest 1 1 36,900  Descending FlightAware UK
Sat 11:36:42 AM 49.3120 2.9600 214° Southwest 396 456 37,000 92 Climbing FlightAware ADS-B
Sat 11:37:18 AM 49.2500 2.9130 214° Southwest 401 461 37,000 -140 Level FlightAware ADS-B
Sat 11:37:25 AM 49.2336 2.9023 214° Southwest 1 1 36,900  Descending FlightAware UK
Sat 11:37:42 AM 49.2085 2.8838 205° Southwest 395 455 37,000  Climbing FlightAware ADS-B
Sat 11:38:37 AM 49.1133 2.8168 205° Southwest 1 1 36,900  Descending FlightAware UK
Sat 11:38:37 AM 49.1180 2.8180 205° Southwest 405 466 37,000 200 Climbing FlightAware ADS-B
Sat 11:39:07 AM 49.0621 2.7814 205° Southwest 1 1 37,000  Level FlightAware UK
Sat 11:39:19 AM 49.0450 2.7760 205° Southwest 413 475 37,000  Level FlightAware ADS-B
Sat 11:39:53 AM 48.9860 2.7540 194° South 413 475 37,000  Level FlightAware ADS-B
Sat 11:40:57 AM 48.8620 2.7070 194° South 413 475 37,000  Level FlightAware ADS-B
Sat 11:41:38 AM 48.7880 2.6790 194° South 411 473 37,000 81 Level FlightAware ADS-B
Sat 11:42:11 AM 48.7250 2.6540 195° South 408 470 37,100  Climbing FlightAware ADS-B
Sat 11:42:52 AM 48.6490 2.6250 194° South 406 467 37,000 -80 Descending FlightAware ADS-B
Sat 11:43:26 AM 48.5870 2.6010 194° South 405 466 37,000  Level FlightAware ADS-B
Sat 11:44:10 AM 48.5120 2.5720 194° South 401 461 37,000  Level FlightAware ADS-B
Sat 11:44:54 AM 48.4310 2.5400 195° South 398 458 37,000  Level FlightAware ADS-B
Sat 11:45:43 AM 48.3440 2.5050 195° South 396 456 37,000  Level FlightAware ADS-B
Sat 11:46:26 AM 48.2690 2.4750 195° South 396 456 37,000  Level FlightAware ADS-B
Sat 11:47:04 AM 48.2010 2.4480 195° South 395 455 37,000  Level FlightAware ADS-B
Sat 11:47:40 AM 48.1370 2.4240 194° South 394 453 37,000  Level FlightAware ADS-B
Sat 11:48:25 AM 48.0570 2.3920 195° South 392 451 37,000  Level FlightAware ADS-B
Sat 11:49:11 AM 47.9760 2.3600 195° South 393 452 37,000  Level FlightAware ADS-B
Sat 11:49:52 AM 47.9060 2.3330 194° South 393 452 37,000  Level FlightAware ADS-B
Sat 11:50:53 AM 47.8010 2.2910 195° South 391 450 37,000  Level FlightAware ADS-B
Sat 11:51:32 AM 47.7320 2.2640 195° South 392 451 37,000  Level FlightAware ADS-B
Sat 11:52:08 AM 47.6670 2.2390 195° South 392 451 37,000  Level FlightAware ADS-B
Sat 11:52:46 AM 47.6030 2.2140 195° South 393 452 37,000  Level FlightAware ADS-B
Sat 11:53:27 AM 47.5260 2.1850 194° South 395 455 37,000  Level FlightAware ADS-B
Sat 11:54:11 AM 47.4500 2.1550 195° South 396 456 37,000  Level FlightAware ADS-B
Sat 11:55:00 AM 47.3620 2.1210 195° South 397 457 37,000  Level FlightAware ADS-B
Sat 11:55:35 AM 47.2990 2.0970 194° South 397 457 37,000  Level FlightAware ADS-B
Sat 11:56:14 AM 47.2330 2.0720 194° South 397 457 37,000  Level FlightAware ADS-B
Sat 11:56:53 AM 47.1630 2.0460 194° South 394 453 37,000  Level FlightAware ADS-B
Sat 11:57:34 AM 47.0930 2.0190 195° South 393 452 37,000  Level FlightAware ADS-B
Sat 11:58:13 AM 47.0210 1.9920 194° South 391 450 37,000  Level FlightAware ADS-B
Sat 11:58:50 AM 46.9600 1.9690 194° South 390 449 37,000  Level FlightAware ADS-B
Sat 11:59:17 AM 46.9080 1.9490 195° South 391 450 37,000  Level FlightAware ADS-B
Sat 11:59:53 AM 46.8510 1.9280 194° South 392 451 37,000  Level FlightAware ADS-B
Sat 12:00:24 PM 46.7970 1.9070 195° South 392 451 37,000  Level FlightAware ADS-B
Sat 12:01:01 PM 46.7260 1.8810 194° South 394 453 37,000  Level FlightAware ADS-B
Sat 12:02:01 PM 46.6210 1.8420 194° South 394 453 37,000  Level FlightAware ADS-B
Sat 12:02:41 PM 46.5490 1.8150 194° South 394 453 37,000  Level FlightAware ADS-B
Sat 12:03:18 PM 46.4850 1.7910 194° South 396 456 37,000  Level FlightAware ADS-B
Sat 12:03:54 PM 46.4210 1.7670 194° South 396 456 37,000  Level FlightAware ADS-B
Sat 12:04:29 PM 46.3600 1.7440 195° South 397 457 37,000  Level FlightAware ADS-B
Sat 12:05:03 PM 46.2980 1.7220 194° South 397 457 37,000  Level FlightAware ADS-B
Sat 12:05:41 PM 46.2290 1.6960 195° South 398 458 37,000  Level FlightAware ADS-B
Sat 12:06:15 PM 46.1700 1.6750 194° South 400 460 37,000  Level FlightAware ADS-B
Sat 12:06:59 PM 46.0930 1.6460 195° South 399 459 37,000 74 Level FlightAware ADS-B
Sat 12:07:36 PM 46.0240 1.6210 194° South 396 456 37,100  Climbing FlightAware ADS-B
Sat 12:08:23 PM 45.9410 1.5920 194° South 397 457 37,000 -76 Descending FlightAware ADS-B
Sat 12:08:55 PM 45.8860 1.5710 195° South 398 458 37,000  Level FlightAware ADS-B
Sat 12:09:34 PM 45.8160 1.5460 194° South 397 457 37,000  Level FlightAware ADS-B
Sat 12:10:15 PM 45.7410 1.5190 194° South 400 460 37,000  Level FlightAware ADS-B
Sat 12:10:52 PM 45.6750 1.4950 194° South 401 461 37,000  Level FlightAware ADS-B
Sat 12:11:39 PM 45.5990 1.4680 194° South 401 461 37,000  Level FlightAware ADS-B
Sat 12:12:12 PM 45.5350 1.4450 194° South 401 461 37,000  Level FlightAware ADS-B
Sat 12:13:00 PM 45.4490 1.4140 194° South 402 463 37,000  Level FlightAware ADS-B
Sat 12:13:36 PM 45.3810 1.3900 194° South 402 463 37,000  Level FlightAware ADS-B
Sat 12:14:19 PM 45.3020 1.3620 194° South 400 460 37,000  Level FlightAware ADS-B
Sat 12:14:55 PM 45.2390 1.3400 194° South 398 458 37,000  Level FlightAware ADS-B
Sat 12:15:32 PM 45.1730 1.3170 194° South 397 457 37,000  Level FlightAware ADS-B
Sat 12:16:11 PM 45.1040 1.2920 194° South 396 456 37,000  Level FlightAware ADS-B
Sat 12:16:47 PM 45.0390 1.2690 194° South 394 453 37,000  Level FlightAware ADS-B
Sat 12:17:20 PM 44.9810 1.2490 194° South 392 451 37,000  Level FlightAware ADS-B
Sat 12:18:34 PM 44.8510 1.2070 193° South 393 452 37,000  Level FlightAware ADS-B
Sat 12:19:19 PM 44.7710 1.1830 192° South 394 453 37,000  Level FlightAware ADS-B
Sat 12:20:07 PM 44.6840 1.1550 193° South 394 453 37,000  Level FlightAware ADS-B
Sat 12:20:37 PM 44.6300 1.1390 192° South 393 452 37,000  Level FlightAware ADS-B
Sat 12:21:49 PM 44.5040 1.1000 192° South 393 452 37,000  Level FlightAware ADS-B
Sat 12:22:20 PM 44.4480 1.0830 192° South 394 453 37,000  Level FlightAware ADS-B
Sat 12:23:01 PM 44.3740 1.0600 193° South 397 457 37,000  Level FlightAware ADS-B
Sat 12:23:37 PM 44.3110 1.0410 192° South 398 458 37,000  Level FlightAware ADS-B
Sat 12:24:14 PM 44.2440 1.0200 193° South 396 456 37,000  Level FlightAware ADS-B
Sat 12:24:50 PM 44.1790 1.0000 192° South 395 455 37,000  Level FlightAware ADS-B
Sat 12:25:27 PM 44.1150 0.9810 192° South 391 450 37,000  Level FlightAware ADS-B
Sat 12:25:53 PM 44.0670 0.9660 193° South 390 449 37,000  Level FlightAware ADS-B
Sat 12:26:30 PM 44.0020 0.9460 192° South 389 448 37,000  Level FlightAware ADS-B
Sat 12:27:17 PM 43.9200 0.9220 192° South 386 444 37,000  Level FlightAware ADS-B
Sat 12:27:50 PM 43.8630 0.9050 192° South 385 443 37,000  Level FlightAware ADS-B
Sat 12:28:35 PM 43.7870 0.8810 193° South 384 442 37,000  Level FlightAware ADS-B
Sat 12:29:11 PM 43.7270 0.8630 192° South 383 441 37,000  Level FlightAware ADS-B
Sat 12:29:43 PM 43.6680 0.8460 192° South 383 441 37,000  Level FlightAware ADS-B
Sat 12:30:46 PM 43.5570 0.8120 193° South 387 445 37,000  Level FlightAware ADS-B
Sat 12:31:22 PM 43.4950 0.7940 192° South 391 450 37,000  Level FlightAware ADS-B
Sat 12:31:55 PM 43.4350 0.7760 192° South 393 452 37,000  Level FlightAware ADS-B
Sat 12:33:02 PM 43.3150 0.7410 192° South 395 455 37,000  Level FlightAware ADS-B
Sat 12:33:33 PM 43.2620 0.7250 192° South 397 457 37,000  Level FlightAware ADS-B
Sat 12:34:18 PM 43.1790 0.7000 192° South 398 458 37,000  Level FlightAware ADS-B
Sat 12:35:16 PM 43.0740 0.6690 192° South 402 463 37,000  Level FlightAware ADS-B
Sat 12:35:57 PM 43.0010 0.6480 192° South 403 464 37,000  Level FlightAware ADS-B
Sat 12:36:27 PM 42.9470 0.6320 192° South 404 465 37,000  Level FlightAware ADS-B
Sat 12:37:04 PM 42.8760 0.6120 192° South 408 470 37,000  Level FlightAware ADS-B
Sat 12:37:43 PM 42.8100 0.5920 193° South 408 470 37,000  Level FlightAware ADS-B
Sat 12:38:19 PM 42.7400 0.5720 192° South 411 473 37,000  Level FlightAware ADS-B
Sat 12:38:57 PM 42.6680 0.5510 192° South 416 479 37,000  Level FlightAware ADS-B
Sat 12:39:34 PM 42.5960 0.5330 190° South 416 479 37,000  Level FlightAware ADS-B
Sat 12:40:09 PM 42.5320 0.5170 190° South 414 476 37,000  Level FlightAware ADS-B
Sat 12:40:52 PM 42.4520 0.4970 190° South 409 471 37,000  Level FlightAware ADS-B
Sat 12:41:25 PM 42.3910 0.4810 191° South 407 468 37,000  Level FlightAware ADS-B
Sat 12:42:08 PM 42.3100 0.4600 191° South 406 467 37,000  Level FlightAware ADS-B
Sat 12:42:46 PM 42.2450 0.4440 190° South 405 466 37,000  Level FlightAware ADS-B
Sat 12:43:20 PM 42.1760 0.4260 191° South 405 466 37,000  Level FlightAware ADS-B
Sat 12:43:59 PM 42.1040 0.4080 191° South 406 467 37,000  Level FlightAware ADS-B
Sat 12:44:34 PM 42.0410 0.3920 191° South 405 466 37,000  Level FlightAware ADS-B
Sat 12:45:10 PM 41.9750 0.3750 191° South 403 464 37,000  Level FlightAware ADS-B
Sat 12:45:59 PM 41.8843 0.3528 190° South 401 461 37,000  Level FlightAware ADS-B (YBCS / CNS)
Sat 12:46:42 PM 41.8077 0.3336 191° South 401 461 37,000  Level FlightAware ADS-B (YBCS / CNS)
Sat 12:47:22 PM 41.7334 0.3150 191° South 401 461 37,000  Level FlightAware ADS-B (YBCS / CNS)
Sat 12:48:29 PM 41.6160 0.2860 191° South 404 465 37,000  Level FlightAware ADS-B
Sat 12:49:00 PM 41.5592 0.2687 191° South  Level Estimated
Sat 12:49:03 PM 41.5530 0.2700 191° South 405 466 37,000  Level FlightAware ADS-B
Sat 12:49:47 PM 41.4700 0.2490 191° South 406 467 37,000  Level FlightAware ADS-B
Sat 12:50:27 PM 41.3970 0.2310 190° South 409 471 37,000  Level FlightAware ADS-B
Sat 12:50:58 PM 41.3400 0.2170 190° South 415 478 37,000  Level FlightAware ADS-B
Sat 12:51:27 PM 41.2810 0.2030 190° South 417 480 37,000  Level FlightAware ADS-B
Sat 12:51:58 PM 41.2240 0.1890 190° South 421 484 37,000  Level FlightAware ADS-B
Sat 12:52:39 PM 41.1460 0.1690 191° South 422 486 37,000 90 Level FlightAware ADS-B
Sat 12:53:05 PM 41.0924 0.1504 195° South 419 482 37,100  Climbing FlightAware ADS-B (YBCS / CNS)
Sat 12:53:40 PM 41.0290 0.1250 197° South 418 481 37,000  Descending FlightAware ADS-B
Sat 12:54:26 PM 40.9490 0.0920 197° South 410 472 37,100  Climbing FlightAware ADS-B
Sat 12:55:04 PM 40.8750 0.0620 197° South 406 467 37,000 -80 Descending FlightAware ADS-B
Sat 12:55:41 PM 40.8130 0.0380 196° South 402 463 37,000  Level FlightAware ADS-B
Sat 12:56:24 PM 40.7350 0.0070 197° South 400 460 37,000 -76 Level FlightAware ADS-B
Sat 12:57:00 PM 40.6740 -0.0170 197° South 402 463 36,900  Descending FlightAware ADS-B
Sat 12:57:38 PM 40.6030 -0.0460 197° South 405 466 37,000 76 Climbing FlightAware ADS-B
Sat 12:58:19 PM 40.5310 -0.0740 196° South 409 471 37,000 -617 Level FlightAware ADS-B
Sat 12:59:25 PM 40.4080 -0.1230 197° South 405 466 35,900 -1,471 Descending FlightAware ADS-B
Sat 01:00:01 PM 40.3460 -0.1480 197° South 400 460 34,500 -2,760 Descending FlightAware ADS-B
Sat 01:01:05 PM 40.2280 -0.1940 197° South 406 467 31,300 -2,165 Descending FlightAware ADS-B
Sat 01:01:38 PM 40.1690 -0.2170 197° South 419 482 31,000 -234 Descending FlightAware ADS-B
Sat 01:02:22 PM 40.0850 -0.2500 197° South 418 481 31,000  Level FlightAware ADS-B
Sat 01:02:44 PM 40.0450 -0.2660 197° South 416 479 31,000 -383 Level FlightAware ADS-B
Sat 01:03:56 PM 39.9170 -0.3160 197° South 415 478 30,400 -667 Descending FlightAware ADS-B
Sat 01:04:32 PM 39.8510 -0.3410 196° South 421 484 29,800 -1,043 Descending FlightAware ADS-B
Sat 01:05:05 PM 39.7870 -0.3670 197° South 426 490 29,200 -986 Descending FlightAware ADS-B
Sat 01:05:45 PM 39.7120 -0.3960 197° South 429 494 28,600 -951 Descending FlightAware ADS-B
Sat 01:06:27 PM 39.6310 -0.4270 196° South 431 496 27,900 -1,012 Descending FlightAware ADS-B
Sat 01:07:08 PM 39.5520 -0.4580 197° South 431 496 27,200 -1,000 Descending FlightAware ADS-B
Sat 01:07:45 PM 39.4820 -0.4850 197° South 427 491 26,600 -923 Descending FlightAware ADS-B
Sat 01:08:26 PM 39.4060 -0.5120 195° South 424 488 26,000 -1,059 Descending FlightAware ADS-B
Sat 01:09:10 PM 39.3230 -0.5410 195° South 419 482 25,100 -1,895 Descending FlightAware ADS-B
Sat 01:09:42 PM 39.2610 -0.5630 195° South 416 479 23,600 -2,870 Descending FlightAware ADS-B
Sat 01:10:19 PM 39.1900 -0.5880 195° South 412 474 21,800 -2,892 Descending FlightAware ADS-B
Sat 01:11:05 PM 39.1070 -0.6170 195° South 408 470 19,600 -2,649 Descending FlightAware ADS-B
Sat 01:11:36 PM 39.0620 -0.6330 195° South 406 467 18,400 -2,897 Descending FlightAware ADS-B
Sat 01:12:03 PM 39.0000 -0.6550 195° South 396 456 16,800 -3,000 Descending FlightAware ADS-B
Sat 01:13:06 PM 38.8950 -0.6920 195° South 372 428 13,900 -2,760 Descending FlightAware ADS-B
Sat 01:13:43 PM 38.8330 -0.7130 195° South 360 414 12,200 -2,219 Descending FlightAware ADS-B
Sat 01:14:19 PM 38.7760 -0.7330 195° South 336 387 11,200 -1,627 Descending FlightAware ADS-B
Sat 01:14:42 PM 38.7420 -0.7450 195° South 343 395 10,600 -1,031 Descending FlightAware ADS-B
Sat 01:15:23 PM 38.6790 -0.7680 196° South 340 391 10,100 -988 Descending FlightAware ADS-B
Sat 01:16:07 PM 38.6130 -0.7910 195° South 333 383 9,200 -1,200 Descending FlightAware ADS-B
Sat 01:16:38 PM 38.5700 -0.8060 195° South 308 354 8,600 -1,059 Descending FlightAware ADS-B
Sat 01:17:15 PM 38.5250 -0.8370 208° Southwest 281 323 8,000 -831 Descending FlightAware ADS-B
Sat 01:17:43 PM 38.5030 -0.8710 230° Southwest 262 302 7,700 -696 Descending FlightAware ADS-B
Sat 01:18:24 PM 38.4660 -0.9090 219° Southwest 244 281 7,200 -896 Descending FlightAware ADS-B
Sat 01:18:50 PM 38.4470 -0.9270 217° Southwest 247 284 6,700 -1,322 Descending FlightAware ADS-B
Sat 01:19:23 PM 38.4110 -0.9500 207° Southwest 250 288 5,900 -750 Descending FlightAware ADS-B
Sat 01:20:02 PM 38.3690 -0.9730 203° Southwest 222 255 5,800 -160 Descending FlightAware ADS-B
Sat 01:20:38 PM 38.3390 -0.9560 156° South 223 257 5,700 -387 Descending FlightAware ADS-B
Sat 01:21:04 PM 38.3330 -0.9230 103° East 219 252 5,400 -873 Descending FlightAware ADS-B
Sat 01:21:33 PM 38.3280 -0.8850 100° East 217 250 4,900 -1,183 Descending FlightAware ADS-B
Sat 01:22:15 PM 38.3210 -0.8360 100° East 202 232 4,000 -1,200 Descending FlightAware ADS-B
Sat 01:22:38 PM 38.3170 -0.8100 101° East 199 229 3,600 -1,031 Descending FlightAware ADS-B
Sat 01:23:19 PM 38.3110 -0.7620 99° East 190 219 2,900 -1,014 Descending FlightAware ADS-B
Sat 01:23:49 PM 38.3060 -0.7300 101° East 188 216 2,400 -947 Descending FlightAware ADS-B
Sat 01:24:16 PM 38.3030 -0.7050 99° East 185 213 2,000 -938 Descending FlightAware ADS-B
Sat 01:24:53 PM 38.2970 -0.6650 101° East 152 175 1,400 -857 Descending FlightAware ADS-B
Sat 01:25:33 PM 38.2930 -0.6320 99° East 137 158 900 -720 Descending FlightAware ADS-B
Sat 01:26:08 PM 38.2890 -0.6050 101° East 135 155 500 -667 Descending FlightAware ADS-B
Sat 01:26:45 PM 38.2850 -0.5770 100° East 137 158 100 -649 Descending FlightAware ADS-B
Sat 01:27:03 PM 38.2830 -0.5630 100° East 120 138 -333 Descending FlightAware ADS-B
Sat 01:27:30 PM 38.2800 -0.5470 103° East 120 138  Level FlightAware ADS-B
Sat 01:30:00 PM 38.2822 -0.5582 284° West  Level Estimated
Sat 01:31:00 PM 38.2822 -0.5582 108° East  Level Estimated
Sat 01:32:00 PM 38.2822 -0.5582 108° East  Level Estimated
Sat 01:33:00 PM 38.2822 -0.5582 108° East  Level Estimated
Sat 01:34:00 PM 38.2822 -0.5582 108° East  Level Estimated

Login

Don't have an account? Register now (free) for customized features, flight alerts, and more!